Archival Weather

Heathrow

London, United Kingdom (EGLL)

Report from: Friday, June 21, 2024 1:50 PM BST
Current time: Sunday, July 14, 2024 12:33 PM BST

Current weather – Weather history – Daily summaries
Weather forecast

Temperature24.0°C (75.2°F)
Dew point9.0°C (48.2°F)
Winds 12 kts (6.2 m/s, 13.8 mph) Vrb
Winds variableWinds variable from Southwest (220°) to West-Northwest (290°)
Visibility6.2 mi. (10 km)
Clouds Sky clear
Altimeter29.88 in.Hg (1012 mB)
Relative humidity39 %
Density altitude1,251 ft. (381 m)
Remarks Fully automated report
Corrected report
No clouds detected
No significant changes expected in the next two hours
Flight conditions Visual Meteorological Conditions
Raw dataCOR EGLL 211250Z AUTO 26012KT 220V290 9999 NCD 24/09 Q1012 NOSIG
An error has occurred. This application may no longer respond until reloaded. Reload 🗙